GMFO

Angads Airport

Oujda, Morocco
METAR GMFO 201300Z 27003KT 180V330 9999 FEW026 17/07 Q1028 NOSIG
Observed Flight Rules
Jan-20 @ 13:00 UTC (10 minutes ago) Visual Flight Rules
Wind Visibility Clouds
270° at 3 knots 10,000+ meters
  • Few at 2,600' AGL
Temperatures Readings
Current 17°C / 63°F
Dewpoint 7°C / 45°F
Humidity 52%
Altimeter 30.35" Hg
Pressure 1028 hPa
Elevation 470
METAR GMFO 201300Z 27003KT 180V330 9999 FEW026 17/07 Q1028 NOSIG
Observed Flight Rules
Jan-20 @ 13:00 UTC
(10 minutes ago)
VFR
Wind Visibility
270° at 3 knots 10,000+ meters
Clouds
  • Few at 2,600' AGL
Temperature Dewpoint
17°C / 63°F 7°C / 45°F
Humidity Altimeter Pressure
52% 30.35" Hg 1028 hPa